createdAt,value
2017-03-14T00:01:09.964Z,0
2017-03-14T00:02:20.730Z,0
2017-03-14T00:03:31.094Z,0
2017-03-14T00:04:41.447Z,0
2017-03-14T00:05:52.232Z,0
2017-03-14T00:07:02.586Z,0
2017-03-14T00:08:12.958Z,0
2017-03-14T00:09:23.731Z,0
2017-03-14T00:10:34.497Z,0
2017-03-14T00:11:44.868Z,0
2017-03-14T00:12:55.858Z,0
2017-03-14T00:14:06.675Z,0
2017-03-14T00:15:17.463Z,0
2017-03-14T00:16:28.248Z,0
2017-03-14T00:17:38.622Z,0
2017-03-14T00:18:49.011Z,0
2017-03-14T00:19:59.782Z,0
2017-03-14T00:21:10.548Z,0
2017-03-14T00:22:20.917Z,0
2017-03-14T00:23:31.747Z,0
2017-03-14T00:24:42.557Z,0
2017-03-14T00:25:53.309Z,0
2017-03-14T00:27:03.685Z,0
2017-03-14T00:28:14.466Z,0
2017-03-14T00:29:25.234Z,0
2017-03-14T00:30:36.050Z,0
2017-03-14T00:31:46.812Z,0
2017-03-14T00:32:57.573Z,0
2017-03-14T00:34:08.346Z,0
2017-03-14T00:35:19.090Z,0
2017-03-14T00:36:29.464Z,0
2017-03-14T00:37:40.232Z,0
2017-03-14T00:38:51.012Z,0
2017-03-14T00:40:01.388Z,0
2017-03-14T00:41:11.742Z,0
2017-03-14T00:42:21.699Z,0
2017-03-14T00:43:32.457Z,0
2017-03-14T00:44:43.229Z,0
2017-03-14T00:45:53.995Z,0
2017-03-14T00:47:04.364Z,0
2017-03-14T00:48:15.148Z,0
2017-03-14T00:49:25.941Z,0
2017-03-14T00:50:36.721Z,0
2017-03-14T00:51:47.492Z,0
2017-03-14T00:52:57.853Z,0
2017-03-14T00:54:08.624Z,0
2017-03-14T00:55:18.993Z,0
2017-03-14T00:56:29.749Z,0
2017-03-14T00:57:40.510Z,0
2017-03-14T00:58:51.309Z,0
2017-03-14T01:00:02.080Z,0
2017-03-14T01:01:12.851Z,0
2017-03-14T01:02:23.613Z,0
2017-03-14T01:03:33.572Z,0
2017-03-14T01:04:43.586Z,0
2017-03-14T01:05:54.343Z,0
2017-03-14T01:07:05.111Z,0
2017-03-14T01:08:15.904Z,0
2017-03-14T01:09:26.669Z,0
2017-03-14T01:10:37.454Z,0
2017-03-14T01:11:48.222Z,0
2017-03-14T01:12:58.980Z,0
2017-03-14T01:14:09.734Z,0
2017-03-14T01:15:20.085Z,0
2017-03-14T01:16:30.864Z,0
2017-03-14T01:17:41.252Z,0
2017-03-14T01:18:51.637Z,0
2017-03-14T01:20:02.400Z,0
2017-03-14T01:21:13.187Z,0
2017-03-14T01:22:23.935Z,0
2017-03-14T01:23:34.695Z,0
2017-03-14T01:24:45.499Z,0
2017-03-14T01:25:56.272Z,0
2017-03-14T01:27:06.244Z,0
2017-03-14T01:28:16.659Z,0
2017-03-14T01:29:27.425Z,0
2017-03-14T01:30:38.180Z,0
2017-03-14T01:31:48.956Z,0
2017-03-14T01:32:59.347Z,0
2017-03-14T01:34:09.706Z,0
2017-03-14T01:35:20.465Z,0
2017-03-14T01:36:30.858Z,0
2017-03-14T01:37:41.638Z,0
2017-03-14T01:38:52.002Z,0
2017-03-14T01:40:02.780Z,0
2017-03-14T01:41:13.555Z,0
2017-03-14T01:42:23.929Z,0
2017-03-14T01:43:34.302Z,0
2017-03-14T01:44:45.069Z,0
2017-03-14T01:45:55.830Z,0
2017-03-14T01:47:06.620Z,0
2017-03-14T01:48:16.996Z,0
2017-03-14T01:49:27.772Z,0
2017-03-14T01:50:38.552Z,0
2017-03-14T01:51:49.296Z,0
2017-03-14T01:52:59.686Z,0
2017-03-14T01:54:10.462Z,0
2017-03-14T01:55:20.835Z,0
2017-03-14T01:56:31.603Z,0
2017-03-14T01:57:42.355Z,0
2017-03-14T01:58:53.119Z,0
2017-03-14T02:00:03.492Z,0
2017-03-14T02:01:14.259Z,0
2017-03-14T02:02:25.040Z,0
2017-03-14T02:03:35.851Z,0
2017-03-14T02:04:46.622Z,0
2017-03-14T02:05:57.381Z,0
2017-03-14T02:07:07.750Z,0
2017-03-14T02:08:18.506Z,0
2017-03-14T02:09:29.275Z,0
2017-03-14T02:10:39.631Z,0
2017-03-14T02:11:50.399Z,0
2017-03-14T02:13:01.186Z,0
2017-03-14T02:14:11.952Z,0
2017-03-14T02:15:22.725Z,0
2017-03-14T02:16:33.505Z,0
2017-03-14T02:17:44.266Z,0
2017-03-14T02:18:55.044Z,0
2017-03-14T02:20:05.794Z,0
2017-03-14T02:21:16.554Z,0
2017-03-14T02:22:27.322Z,0
2017-03-14T02:23:37.721Z,0
2017-03-14T02:24:48.478Z,0
2017-03-14T02:25:58.845Z,0
2017-03-14T02:27:09.626Z,0
2017-03-14T02:28:19.983Z,0
2017-03-14T02:29:30.756Z,0
2017-03-14T02:30:41.548Z,0
2017-03-14T02:31:52.284Z,0
2017-03-14T02:33:02.246Z,0
2017-03-14T02:34:12.211Z,0
2017-03-14T02:35:22.572Z,0
2017-03-14T02:36:33.335Z,0
2017-03-14T02:37:44.099Z,0
2017-03-14T02:38:54.869Z,0
2017-03-14T02:40:05.644Z,0
2017-03-14T02:41:16.402Z,0
2017-03-14T02:42:27.156Z,0
2017-03-14T02:43:37.930Z,0
2017-03-14T02:44:48.687Z,0
2017-03-14T02:45:59.469Z,0
2017-03-14T02:47:10.232Z,0
2017-03-14T02:48:20.983Z,0
2017-03-14T02:49:31.741Z,0
2017-03-14T02:50:42.512Z,0
2017-03-14T02:51:53.302Z,0
2017-03-14T02:53:03.657Z,0
2017-03-14T02:54:14.663Z,0
2017-03-14T02:55:25.042Z,0
2017-03-14T02:56:35.785Z,0
2017-03-14T02:57:46.586Z,0
2017-03-14T02:58:56.957Z,0
2017-03-14T03:00:07.726Z,0
2017-03-14T03:01:18.513Z,0
2017-03-14T03:32:13.630Z,0
2017-03-14T03:33:23.968Z,0
2017-03-14T03:34:34.326Z,0
2017-03-14T03:35:45.108Z,0
2017-03-14T03:36:55.847Z,0
2017-03-14T03:38:06.615Z,0
2017-03-14T03:39:17.386Z,0
2017-03-14T03:40:28.137Z,0
2017-03-14T03:41:38.902Z,0
2017-03-14T03:42:49.263Z,0
2017-03-14T03:44:00.024Z,0
2017-03-14T03:45:10.780Z,0
2017-03-14T03:46:21.537Z,0
2017-03-14T03:47:32.293Z,0
2017-03-14T03:48:43.074Z,0
2017-03-14T03:49:53.449Z,0
2017-03-14T03:51:04.225Z,0
2017-03-14T03:52:15.016Z,0
2017-03-14T03:53:25.788Z,0
2017-03-14T03:54:36.526Z,0
2017-03-14T03:55:46.891Z,0
2017-03-14T03:56:57.258Z,0
2017-03-14T03:58:08.023Z,0
2017-03-14T03:59:18.806Z,0
2017-03-14T04:00:29.576Z,0
2017-03-14T04:01:40.332Z,0
2017-03-14T04:02:51.339Z,0
2017-03-14T04:04:01.694Z,0
2017-03-14T04:05:12.473Z,0
2017-03-14T04:06:23.242Z,0
2017-03-14T04:07:34.019Z,0
2017-03-14T04:08:44.780Z,0
2017-03-14T04:09:55.551Z,0
2017-03-14T04:11:06.287Z,0
2017-03-14T04:12:16.639Z,0
2017-03-14T04:13:27.400Z,0
2017-03-14T04:14:38.182Z,0
2017-03-14T04:15:48.939Z,0
2017-03-14T04:16:59.310Z,0
2017-03-14T04:18:10.083Z,0
2017-03-14T04:19:20.841Z,0
2017-03-14T04:20:31.616Z,0
2017-03-14T04:21:42.367Z,0
2017-03-14T04:22:53.147Z,0
2017-03-14T04:24:03.895Z,0
2017-03-14T04:25:14.648Z,0
2017-03-14T04:26:25.420Z,0
2017-03-14T04:27:35.782Z,0
2017-03-14T04:28:46.556Z,0
2017-03-14T04:29:57.328Z,0
2017-03-14T04:31:08.080Z,0
2017-03-14T04:32:18.833Z,0
2017-03-14T04:33:29.601Z,0
2017-03-14T04:34:40.367Z,0
2017-03-14T04:35:51.127Z,0
2017-03-14T04:37:01.891Z,0
2017-03-14T04:38:12.663Z,0
2017-03-14T04:39:23.436Z,0
2017-03-14T04:40:34.196Z,4
2017-03-14T04:41:44.955Z,4
2017-03-14T04:42:55.337Z,4
2017-03-14T04:44:05.737Z,0
2017-03-14T04:45:16.515Z,0
2017-03-14T04:46:27.274Z,4
2017-03-14T04:47:38.033Z,0
2017-03-14T04:48:48.801Z,4
2017-03-14T04:49:59.173Z,4
2017-03-14T04:51:09.961Z,4
2017-03-14T04:52:19.943Z,4
2017-03-14T04:53:30.704Z,8
2017-03-14T04:54:41.472Z,8
2017-03-14T04:55:52.228Z,12
2017-03-14T04:57:03.004Z,12
2017-03-14T04:58:12.958Z,16
2017-03-14T04:59:23.734Z,16
2017-03-14T05:00:34.502Z,20
2017-03-14T05:01:44.867Z,24
2017-03-14T05:02:54.831Z,32
2017-03-14T05:04:05.606Z,36
2017-03-14T05:05:16.362Z,36
2017-03-14T05:06:27.127Z,40
2017-03-14T05:07:37.486Z,44
2017-03-14T05:08:48.239Z,52
2017-03-14T05:09:58.620Z,52
2017-03-14T05:11:08.610Z,56
2017-03-14T05:12:19.375Z,60
2017-03-14T05:13:30.150Z,64
2017-03-14T05:14:40.929Z,72
2017-03-14T05:15:50.910Z,72
2017-03-14T05:17:01.689Z,76
2017-03-14T05:18:12.468Z,84
2017-03-14T05:19:23.228Z,92
2017-03-14T05:20:33.966Z,92
2017-03-14T05:21:44.729Z,100
2017-03-14T05:22:55.520Z,108
2017-03-14T05:24:05.900Z,116
2017-03-14T05:25:16.672Z,124
2017-03-14T05:26:27.464Z,136
2017-03-14T05:27:38.221Z,148
2017-03-14T05:28:48.174Z,160
2017-03-14T05:29:58.948Z,176
2017-03-14T05:31:09.711Z,188
2017-03-14T05:32:20.103Z,200
2017-03-14T05:33:30.867Z,212
2017-03-14T05:34:41.636Z,224
2017-03-14T05:35:52.387Z,240
2017-03-14T05:37:02.736Z,256
2017-03-14T05:38:13.108Z,268
2017-03-14T05:39:23.074Z,284
2017-03-14T05:40:33.839Z,300
2017-03-14T05:41:44.643Z,312
2017-03-14T05:42:54.601Z,324
2017-03-14T05:44:04.990Z,340
2017-03-14T05:45:15.729Z,352
2017-03-14T05:46:26.502Z,372
2017-03-14T05:47:37.254Z,392
2017-03-14T05:48:48.030Z,420
2017-03-14T05:49:58.803Z,444
2017-03-14T05:51:09.177Z,460
2017-03-14T05:52:19.539Z,476
2017-03-14T05:53:29.890Z,500
2017-03-14T05:54:40.669Z,520
2017-03-14T05:55:51.022Z,544
2017-03-14T05:57:01.396Z,564
2017-03-14T05:58:12.157Z,584
2017-03-14T05:59:22.537Z,608
2017-03-14T06:00:33.318Z,628
2017-03-14T06:01:43.924Z,656
2017-03-14T06:02:54.281Z,672
2017-03-14T06:04:05.029Z,688
2017-03-14T06:05:15.788Z,708
2017-03-14T06:06:26.557Z,732
2017-03-14T06:07:37.316Z,752
2017-03-14T06:08:48.080Z,772
2017-03-14T06:09:58.848Z,788
2017-03-14T06:11:09.621Z,808
2017-03-14T06:12:20.397Z,828
2017-03-14T06:13:31.155Z,852
2017-03-14T06:14:41.928Z,880
2017-03-14T06:15:52.684Z,904
2017-03-14T06:17:03.448Z,936
2017-03-14T06:18:14.231Z,976
2017-03-14T06:19:25.009Z,1024
2017-03-14T06:20:35.787Z,1056
2017-03-14T06:21:46.557Z,1084
2017-03-14T06:22:57.314Z,1112
2017-03-14T06:24:08.118Z,1140
2017-03-14T06:25:18.923Z,1164
2017-03-14T06:26:29.294Z,1184
2017-03-14T06:27:40.074Z,1200
2017-03-14T06:28:50.841Z,1228
2017-03-14T06:30:01.612Z,1252
2017-03-14T06:31:12.393Z,1288
2017-03-14T06:32:23.174Z,1320
2017-03-14T06:33:33.556Z,1364
2017-03-14T06:34:44.312Z,1400
2017-03-14T06:35:55.066Z,1432
2017-03-14T06:37:05.834Z,1456
2017-03-14T06:38:16.591Z,1480
2017-03-14T06:39:27.333Z,1500
2017-03-14T06:40:38.136Z,1516
2017-03-14T06:41:48.526Z,1512
2017-03-14T06:42:59.289Z,1500
2017-03-14T06:44:10.075Z,1496
2017-03-14T06:45:20.872Z,1492
2017-03-14T06:46:31.666Z,1476
2017-03-14T06:47:42.458Z,1476
2017-03-14T06:48:53.457Z,1484
2017-03-14T06:50:04.247Z,1500
2017-03-14T06:51:14.628Z,1520
2017-03-14T06:52:25.397Z,1536
2017-03-14T06:53:35.785Z,1544
2017-03-14T06:54:46.573Z,1560
2017-03-14T06:55:57.344Z,1592
2017-03-14T06:57:07.735Z,1640
2017-03-14T06:58:18.517Z,1700
2017-03-14T06:59:29.289Z,1760
2017-03-14T07:00:40.051Z,1812
2017-03-14T07:01:50.811Z,1852
2017-03-14T07:03:01.582Z,1900
2017-03-14T07:04:12.345Z,1940
2017-03-14T07:05:22.323Z,1984
2017-03-14T07:06:33.104Z,2032
2017-03-14T07:07:43.873Z,2096
2017-03-14T07:08:54.679Z,2160
2017-03-14T07:10:05.447Z,2236
2017-03-14T07:11:16.219Z,2300
2017-03-14T07:12:26.974Z,2352
2017-03-14T07:13:37.747Z,2376
2017-03-14T07:14:48.097Z,2392
2017-03-14T07:15:58.872Z,2416
2017-03-14T07:17:09.645Z,2452
2017-03-14T07:18:20.403Z,2488
2017-03-14T07:19:30.762Z,2532
2017-03-14T07:20:41.541Z,2604
2017-03-14T07:21:51.915Z,2696
2017-03-14T07:23:02.679Z,2788
2017-03-14T07:24:13.441Z,2864
2017-03-14T07:25:24.210Z,2948
2017-03-14T07:26:34.975Z,3040
2017-03-14T07:27:45.748Z,3148
2017-03-14T07:28:56.521Z,3252
2017-03-14T07:30:07.315Z,3344
2017-03-14T07:31:17.710Z,3452
2017-03-14T07:32:28.476Z,3560
2017-03-14T07:33:38.860Z,3696
2017-03-14T07:34:49.637Z,3808
2017-03-14T07:36:00.406Z,3856
2017-03-14T07:37:11.157Z,3856
2017-03-14T07:38:21.934Z,3828
2017-03-14T07:39:32.711Z,3792
2017-03-14T07:40:43.504Z,3780
2017-03-14T07:41:54.280Z,3840
2017-03-14T07:43:05.056Z,3900
2017-03-14T07:44:15.860Z,3948
2017-03-14T07:45:26.641Z,4028
2017-03-14T07:46:37.395Z,4136
2017-03-14T07:47:47.775Z,4216
2017-03-14T07:48:58.545Z,4216
2017-03-14T07:50:09.328Z,4200
2017-03-14T07:51:20.097Z,4224
2017-03-14T07:52:30.891Z,4252
2017-03-14T07:53:41.661Z,4276
2017-03-14T07:54:51.624Z,4296
2017-03-14T07:56:02.391Z,4336
2017-03-14T07:57:13.153Z,4396
2017-03-14T07:58:23.919Z,4440
2017-03-14T07:59:34.702Z,4464
2017-03-14T08:00:45.477Z,4468
2017-03-14T08:01:56.254Z,4480
2017-03-14T08:03:07.011Z,4504
2017-03-14T08:04:17.432Z,4540
2017-03-14T08:05:28.196Z,4560
2017-03-14T08:06:38.165Z,4532
2017-03-14T08:07:48.924Z,4476
2017-03-14T08:08:59.978Z,4468
2017-03-14T08:10:10.740Z,4548
2017-03-14T08:11:21.518Z,4692
2017-03-14T08:12:32.294Z,4796
2017-03-14T08:13:42.298Z,4892
2017-03-14T08:14:53.079Z,5100
2017-03-14T08:16:03.861Z,5316
2017-03-14T08:17:14.236Z,5584
2017-03-14T08:18:24.595Z,5864
2017-03-14T08:19:35.351Z,6264
2017-03-14T08:20:46.124Z,6308
2017-03-14T08:21:56.094Z,6256
2017-03-14T08:23:06.458Z,6492
2017-03-14T08:24:17.223Z,7136
2017-03-14T08:25:27.621Z,6644
2017-03-14T08:26:38.395Z,6608
2017-03-14T08:27:48.754Z,6640
2017-03-14T08:28:59.516Z,6728
2017-03-14T08:30:10.330Z,6828
2017-03-14T08:31:21.079Z,7048
2017-03-14T08:32:31.446Z,7260
2017-03-14T08:33:41.801Z,7388
2017-03-14T08:34:52.579Z,7440
2017-03-14T08:36:03.343Z,7564
2017-03-14T08:37:14.116Z,7680
2017-03-14T08:38:24.904Z,7680
2017-03-14T08:39:35.255Z,7584
2017-03-14T08:40:46.070Z,7472
2017-03-14T08:41:56.841Z,7384
2017-03-14T08:43:07.649Z,7352
2017-03-14T08:44:18.416Z,7320
2017-03-14T08:45:29.170Z,7308
2017-03-14T08:46:39.547Z,7280
2017-03-14T08:47:50.336Z,7268
2017-03-14T08:49:00.695Z,7192
2017-03-14T08:50:11.050Z,7132
2017-03-14T08:51:21.836Z,7092
2017-03-14T08:52:32.237Z,7124
2017-03-14T08:53:42.626Z,7104
2017-03-14T08:54:53.397Z,7160
2017-03-14T08:56:04.181Z,7248
2017-03-14T08:57:14.939Z,7228
2017-03-14T08:58:25.762Z,7280
2017-03-14T08:59:36.523Z,7224
2017-03-14T09:00:47.307Z,7172
2017-03-14T09:01:58.069Z,7148
2017-03-14T09:03:08.839Z,7136
2017-03-14T09:04:19.605Z,7128
2017-03-14T09:05:30.378Z,7116
2017-03-14T09:06:40.350Z,7104
2017-03-14T09:07:51.159Z,7084
2017-03-14T09:09:01.534Z,7032
2017-03-14T09:10:12.306Z,6992
2017-03-14T09:11:22.679Z,6928
2017-03-14T09:12:33.057Z,7068
2017-03-14T09:13:43.430Z,6920
2017-03-14T09:14:53.797Z,6888
2017-03-14T09:16:04.560Z,6828
2017-03-14T09:17:15.329Z,6800
2017-03-14T09:18:25.693Z,6852
2017-03-14T09:19:36.463Z,6764
2017-03-14T09:20:47.280Z,6736
2017-03-14T09:21:57.640Z,6696
2017-03-14T09:23:08.395Z,6656
2017-03-14T09:24:18.757Z,6500
2017-03-14T09:25:29.530Z,6352
2017-03-14T09:26:39.846Z,6232
2017-03-14T09:27:50.605Z,6196
2017-03-14T09:29:01.393Z,6572
2017-03-14T09:30:12.170Z,5884
2017-03-14T09:31:22.774Z,6056
2017-03-14T09:32:33.151Z,5440
2017-03-14T09:33:43.924Z,5468
2017-03-14T09:34:54.288Z,5776
2017-03-14T09:36:05.051Z,6956
2017-03-14T09:37:16.821Z,6660
2017-03-14T09:38:27.612Z,6956
2017-03-14T09:39:38.392Z,9824
2017-03-14T09:40:49.179Z,6584
2017-03-14T09:41:59.964Z,6064
2017-03-14T09:43:10.431Z,6852
2017-03-14T09:44:21.221Z,6236
2017-03-14T09:45:31.637Z,5772
2017-03-14T09:46:42.305Z,6740
2017-03-14T09:47:53.098Z,5048
2017-03-14T09:49:03.478Z,5032
2017-03-14T09:50:14.293Z,4628
2017-03-14T09:51:27.801Z,4416
2017-03-14T09:52:40.403Z,4268
2017-03-14T09:53:51.201Z,4372
2017-03-14T09:55:01.991Z,4592
2017-03-14T09:56:12.795Z,4992
2017-03-14T09:57:23.580Z,6092
2017-03-14T09:58:33.958Z,5468
2017-03-14T09:59:44.729Z,7628
2017-03-14T10:00:55.091Z,6060
2017-03-14T10:02:05.873Z,6124
2017-03-14T10:03:16.642Z,6156
2017-03-14T10:04:27.031Z,9312
2017-03-14T10:05:37.445Z,8728
2017-03-14T10:06:47.804Z,7796
2017-03-14T10:07:58.560Z,9192
2017-03-14T10:09:09.305Z,8120
2017-03-14T10:10:20.050Z,9028
2017-03-14T10:11:30.815Z,9256
2017-03-14T10:12:41.627Z,9224
2017-03-14T10:13:52.368Z,9180
2017-03-14T10:15:03.114Z,9228
2017-03-14T10:16:13.881Z,9148
2017-03-14T10:17:24.649Z,9236
2017-03-14T10:18:35.407Z,9312
2017-03-14T10:19:46.172Z,9328
2017-03-14T10:20:56.918Z,9400
2017-03-14T10:22:08.285Z,9276
2017-03-14T10:23:18.627Z,9260
2017-03-14T10:24:28.976Z,9172
2017-03-14T10:25:39.324Z,9268
2017-03-14T10:26:49.659Z,9352
2017-03-14T10:28:00.005Z,9216
2017-03-14T10:29:10.371Z,9396
2017-03-14T10:30:20.727Z,9448
2017-03-14T10:31:30.770Z,9452
2017-03-14T10:32:41.117Z,9492
2017-03-14T10:33:51.474Z,9660
2017-03-14T10:35:01.829Z,9680
2017-03-14T10:36:12.178Z,9684
2017-03-14T10:37:22.539Z,9804
2017-03-14T10:38:32.886Z,9936
2017-03-14T10:39:43.400Z,10072
2017-03-14T10:40:53.751Z,10144
2017-03-14T10:42:04.105Z,9244
2017-03-14T10:43:14.462Z,9296
2017-03-14T10:44:24.792Z,7424
2017-03-14T10:45:35.132Z,6524
2017-03-14T10:46:45.458Z,9252
2017-03-14T10:47:55.800Z,7980
2017-03-14T10:49:05.913Z,9228
2017-03-14T10:50:16.286Z,9264
2017-03-14T10:51:26.640Z,9540
2017-03-14T10:52:36.981Z,7208
2017-03-14T10:53:47.317Z,8100
2017-03-14T10:54:57.658Z,9800
2017-03-14T10:56:08.006Z,10028
2017-03-14T10:57:18.346Z,10008
2017-03-14T10:58:28.363Z,7172
2017-03-14T10:59:38.703Z,10424
2017-03-14T11:00:49.042Z,10740
2017-03-14T11:01:59.401Z,10672
2017-03-14T11:03:09.442Z,10592
2017-03-14T11:04:19.776Z,10276
2017-03-14T11:05:30.118Z,10668
2017-03-14T11:06:40.138Z,10136
2017-03-14T11:07:50.465Z,10376
2017-03-14T11:09:00.830Z,9884
2017-03-14T11:10:11.170Z,5416
2017-03-14T11:11:21.213Z,9600
2017-03-14T11:12:31.566Z,10172
2017-03-14T11:13:41.470Z,9860
2017-03-14T11:14:51.506Z,9860
2017-03-14T11:16:01.847Z,5228
2017-03-14T11:17:11.563Z,5276
2017-03-14T11:18:21.902Z,10160
2017-03-14T11:19:32.234Z,10544
2017-03-14T11:20:42.566Z,9560
2017-03-14T11:21:52.593Z,10752
2017-03-14T11:23:02.923Z,10960
2017-03-14T11:24:12.959Z,11120
2017-03-14T11:25:23.326Z,11028
2017-03-14T11:26:33.664Z,11340
2017-03-14T11:27:44.024Z,11488
2017-03-14T11:28:54.359Z,11580
2017-03-14T11:30:04.708Z,6976
2017-03-14T11:31:14.744Z,7272
2017-03-14T11:32:25.090Z,8740
2017-03-14T11:33:35.116Z,11588
2017-03-14T11:34:45.140Z,11016
2017-03-14T11:35:55.499Z,10164
2017-03-14T11:37:05.848Z,11660
2017-03-14T11:38:16.197Z,11952
2017-03-14T11:39:26.240Z,11944
2017-03-14T11:40:36.589Z,12548
2017-03-14T11:41:46.301Z,12188
2017-03-14T11:42:56.347Z,12064
2017-03-14T11:44:06.386Z,12564
2017-03-14T11:45:16.740Z,12712
2017-03-14T11:46:27.064Z,10940
2017-03-14T11:47:37.390Z,8712
2017-03-14T11:48:47.765Z,8628
2017-03-14T11:49:57.782Z,7248
2017-03-14T11:51:08.116Z,7204
2017-03-14T11:52:18.443Z,6344
2017-03-14T11:53:28.458Z,6724
2017-03-14T11:54:38.480Z,6916
2017-03-14T11:55:48.511Z,10232
2017-03-14T11:56:58.578Z,11936
2017-03-14T11:58:08.602Z,11756
2017-03-14T11:59:18.958Z,10828
2017-03-14T12:00:28.992Z,12056
2017-03-14T12:01:39.339Z,11700
2017-03-14T12:02:49.678Z,11412
2017-03-14T12:03:59.723Z,11540
2017-03-14T12:05:10.059Z,11428
2017-03-14T12:06:20.396Z,10800
2017-03-14T12:07:30.733Z,9160
2017-03-14T12:08:41.074Z,10532
2017-03-14T12:09:51.424Z,11004
2017-03-14T12:11:01.779Z,11264
2017-03-14T12:12:11.799Z,11380
2017-03-14T12:13:22.149Z,8364
2017-03-14T12:14:32.518Z,11568
2017-03-14T12:15:42.861Z,11720
2017-03-14T12:16:52.892Z,11884
2017-03-14T12:18:03.247Z,10984
2017-03-14T12:19:13.588Z,11312
2017-03-14T12:20:23.933Z,10896
2017-03-14T12:21:34.273Z,7748
2017-03-14T12:22:44.623Z,11220
2017-03-14T12:23:54.670Z,11252
2017-03-14T12:25:05.019Z,10672
2017-03-14T12:26:15.355Z,10100
2017-03-14T12:27:25.692Z,7328
2017-03-14T12:28:35.723Z,7656
2017-03-14T12:29:46.095Z,7340
2017-03-14T12:30:56.432Z,6452
2017-03-14T12:32:06.816Z,8820
2017-03-14T12:33:16.903Z,8032
2017-03-14T12:34:27.243Z,7276
2017-03-14T12:35:37.591Z,10276
2017-03-14T12:36:47.949Z,11176
2017-03-14T12:37:58.163Z,10672
2017-03-14T12:39:08.519Z,10132
2017-03-14T12:40:18.237Z,7796
2017-03-14T12:41:28.594Z,6440
2017-03-14T12:42:38.638Z,6428
2017-03-14T12:43:49.000Z,7860
2017-03-14T12:44:59.031Z,6912
2017-03-14T12:46:09.059Z,6272
2017-03-14T12:47:19.127Z,6352
2017-03-14T12:48:29.459Z,7436
2017-03-14T12:49:39.522Z,6248
2017-03-14T12:50:49.868Z,5744
2017-03-14T12:52:00.203Z,5720
2017-03-14T12:53:10.549Z,10220
2017-03-14T12:54:20.935Z,6788
2017-03-14T12:55:31.297Z,6572
2017-03-14T12:56:41.029Z,6900
2017-03-14T12:57:51.374Z,7204
2017-03-14T12:59:01.439Z,11168
2017-03-14T13:00:11.792Z,11580
2017-03-14T13:01:22.117Z,8548
2017-03-14T13:02:32.139Z,7844
2017-03-14T13:03:42.492Z,8172
2017-03-14T13:04:52.837Z,7320
2017-03-14T13:06:03.170Z,7116
2017-03-14T13:07:12.877Z,6900
2017-03-14T13:08:23.204Z,7104
2017-03-14T13:09:33.530Z,6848
2017-03-14T13:10:43.560Z,6700
2017-03-14T13:11:53.608Z,6616
2017-03-14T13:13:03.936Z,6956
2017-03-14T13:14:13.967Z,6640
2017-03-14T13:15:24.315Z,6352
2017-03-14T13:16:34.666Z,6496
2017-03-14T13:17:44.383Z,6352
2017-03-14T13:18:54.397Z,6312
2017-03-14T13:20:04.733Z,6232
2017-03-14T13:21:15.087Z,6404
2017-03-14T13:22:25.437Z,6532
2017-03-14T13:23:35.782Z,6772
2017-03-14T13:24:46.120Z,6420
2017-03-14T13:25:56.460Z,6056
2017-03-14T13:27:06.833Z,5396
2017-03-14T13:28:17.182Z,4672
2017-03-14T13:29:27.539Z,4620
2017-03-14T13:30:37.577Z,4404
2017-03-14T13:31:47.931Z,4172
2017-03-14T13:32:58.257Z,4412
2017-03-14T13:34:08.300Z,4648
2017-03-14T13:35:18.642Z,4628
2017-03-14T13:36:28.705Z,4472
2017-03-14T13:37:39.090Z,4464
2017-03-14T13:38:49.431Z,4384
2017-03-14T13:39:59.481Z,4240
2017-03-14T13:41:09.807Z,3932
2017-03-14T13:42:20.128Z,3428
2017-03-14T13:43:30.477Z,2908
2017-03-14T13:44:40.806Z,2480
2017-03-14T13:45:50.832Z,2276
2017-03-14T13:47:00.861Z,2332
2017-03-14T13:48:10.893Z,2524
2017-03-14T13:49:20.921Z,2624
2017-03-14T13:50:31.283Z,2664
2017-03-14T13:51:41.625Z,2636
2017-03-14T13:52:51.339Z,2612
2017-03-14T13:54:01.374Z,2456
2017-03-14T13:55:11.722Z,2208
2017-03-14T13:56:21.759Z,2104
2017-03-14T13:57:32.126Z,2120
2017-03-14T13:58:42.159Z,2204
2017-03-14T13:59:52.183Z,2156
2017-03-14T14:01:02.203Z,2180
2017-03-14T14:02:12.234Z,2296
2017-03-14T14:03:22.585Z,2612
2017-03-14T14:04:32.639Z,3060
2017-03-14T14:05:43.012Z,3512
2017-03-14T14:06:53.365Z,3992
2017-03-14T14:08:03.703Z,4332
2017-03-14T14:09:13.726Z,4888
2017-03-14T14:10:24.065Z,4964
2017-03-14T14:11:34.421Z,5156
2017-03-14T14:12:44.772Z,5528
2017-03-14T14:13:54.812Z,6368
2017-03-14T14:15:05.148Z,5796
2017-03-14T14:16:15.482Z,6288
2017-03-14T14:17:25.837Z,6452
2017-03-14T14:18:35.873Z,6148
2017-03-14T14:19:46.224Z,5696
2017-03-14T14:20:56.571Z,5448
2017-03-14T14:22:06.927Z,6500
2017-03-14T14:23:17.288Z,5812
2017-03-14T14:24:27.646Z,5612
2017-03-14T14:25:37.337Z,5624
2017-03-14T14:26:47.665Z,5832
2017-03-14T14:27:57.997Z,5564
2017-03-14T14:29:08.340Z,5624
2017-03-14T14:30:18.361Z,5888
2017-03-14T14:31:28.709Z,5860
2017-03-14T14:32:39.045Z,6268
2017-03-14T14:33:49.408Z,7988
2017-03-14T14:34:59.754Z,8312
2017-03-14T14:36:09.793Z,7744
2017-03-14T14:37:19.526Z,7676
2017-03-14T14:38:29.619Z,7244
2017-03-14T14:39:40.027Z,6728
2017-03-14T14:40:50.416Z,6020
2017-03-14T14:42:00.794Z,6412
2017-03-14T14:43:11.178Z,5740
2017-03-14T14:44:21.586Z,6972
2017-03-14T14:45:31.985Z,6396
2017-03-14T14:46:42.485Z,6128
2017-03-14T14:47:52.861Z,5840
2017-03-14T14:49:03.405Z,5864
2017-03-14T14:50:13.916Z,5272
2017-03-14T14:51:24.054Z,5412
2017-03-14T14:52:34.427Z,5444
2017-03-14T14:53:44.751Z,5404
2017-03-14T14:54:55.344Z,5436
2017-03-14T14:56:05.459Z,5824
2017-03-14T14:57:15.799Z,6032
2017-03-14T14:58:26.183Z,5148
2017-03-14T14:59:36.639Z,4996
2017-03-14T15:00:47.176Z,4708
2017-03-14T15:01:57.678Z,4436
2017-03-14T15:03:08.140Z,4240
2017-03-14T15:04:18.537Z,4260
2017-03-14T15:05:28.903Z,4340
2017-03-14T15:06:39.343Z,5000
2017-03-14T15:07:49.846Z,5604
2017-03-14T15:08:59.923Z,4660
2017-03-14T15:10:10.444Z,5100
2017-03-14T15:11:20.566Z,4832
2017-03-14T15:12:31.071Z,4548
2017-03-14T15:13:41.440Z,4436
2017-03-14T15:14:51.331Z,4216
2017-03-14T15:16:01.865Z,3480
2017-03-14T15:17:17.673Z,3632
2017-03-14T15:18:29.751Z,3824
2017-03-14T15:19:41.475Z,4164
2017-03-14T15:20:52.246Z,3972
2017-03-14T15:22:02.769Z,4132
2017-03-14T15:23:12.731Z,3796
2017-03-14T15:24:23.182Z,3984
2017-03-14T15:25:33.601Z,3812
2017-03-14T15:26:43.726Z,3516
2017-03-14T15:27:53.965Z,3468
2017-03-14T15:29:04.436Z,3456
2017-03-14T15:30:14.811Z,3340
2017-03-14T15:31:25.280Z,3064
2017-03-14T15:32:35.509Z,3072
2017-03-14T15:33:47.999Z,3124
2017-03-14T15:35:00.346Z,3096
2017-03-14T15:36:11.487Z,2996
2017-03-14T15:37:23.276Z,2852
2017-03-14T15:38:34.627Z,2720
2017-03-14T15:39:46.322Z,2420
2017-03-14T15:40:57.943Z,2376
2017-03-14T15:42:11.015Z,2420
2017-03-14T15:43:23.363Z,2392
2017-03-14T15:44:34.897Z,2204
2017-03-14T15:45:46.874Z,2008
2017-03-14T15:46:58.633Z,1872
2017-03-14T15:48:10.134Z,1736
2017-03-14T15:49:21.794Z,1720
2017-03-14T15:50:33.784Z,1700
2017-03-14T15:51:46.460Z,1644
2017-03-14T15:52:58.838Z,1732
2017-03-14T15:54:11.312Z,1704
2017-03-14T15:55:24.222Z,1716
2017-03-14T15:56:36.172Z,1692
2017-03-14T15:57:46.827Z,1648
2017-03-14T15:58:59.969Z,1604
2017-03-14T16:00:12.211Z,1528
2017-03-14T16:01:24.463Z,1476
2017-03-14T16:02:36.849Z,1468
2017-03-14T16:03:48.651Z,1456
2017-03-14T16:05:00.863Z,1392
2017-03-14T16:06:12.970Z,1300
2017-03-14T16:07:24.701Z,1224
2017-03-14T16:08:39.874Z,1148
2017-03-14T16:09:52.395Z,1076
2017-03-14T16:11:04.563Z,1016
2017-03-14T16:12:17.054Z,972
2017-03-14T16:13:28.780Z,924
2017-03-14T16:14:43.128Z,884
2017-03-14T16:15:54.622Z,848
2017-03-14T16:17:05.665Z,804
2017-03-14T16:18:18.834Z,756
2017-03-14T16:19:30.599Z,712
2017-03-14T16:20:41.894Z,676
2017-03-14T16:21:54.605Z,648
2017-03-14T16:23:06.280Z,612
2017-03-14T16:24:16.502Z,588
2017-03-14T16:25:26.874Z,568
2017-03-14T16:26:37.242Z,556
2017-03-14T16:27:47.615Z,548
2017-03-14T16:28:57.972Z,536
2017-03-14T16:30:08.342Z,528
2017-03-14T16:31:18.697Z,520
2017-03-14T16:32:28.768Z,500
2017-03-14T16:33:39.118Z,484
2017-03-14T16:34:49.475Z,464
2017-03-14T16:35:59.822Z,440
2017-03-14T16:37:10.165Z,416
2017-03-14T16:38:20.543Z,388